Time;durP1;ratioP1;P1;durP2;ratioP2;P2;SDS_P1;SDS_P2;PMS_P1;PMS_P2;Temp;Humidity;BMP_temperature;BMP_pressure;BME280_temperature;BME280_humidity;BME280_pressure;Samples;Min_cycle;Max_cycle;Signal;HPM_P1;HPM_P2
2024/03/09 00:01:09;;;;;;;82.50;53.60;;;;;;;;;;104592;1283;545351;-70
2024/03/09 00:04:43;;;;;;;80.40;51.10;;;;;;;;;;103709;1289;545422;-71
2024/03/09 00:08:26;;;;;;;77.30;51.20;;;;;;;;;;103591;1289;546188;-71
2024/03/09 00:12:04;;;;;;;83.60;55.10;;;;;;;;;;103752;1291;544990;-71
2024/03/09 00:15:41;;;;;;;84.00;55.10;;;;;;;;;;103696;1289;544760;-71
2024/03/09 00:19:20;;;;;;;86.90;54.20;;;;;;;;;;103515;1291;545769;-70
2024/03/09 00:23:22;;;;;;;84.80;54.30;;;;;;;;;;103545;1291;545041;-70
2024/03/09 00:26:29;;;;;;;82.00;52.60;;;;;;;;;;103721;1296;545853;-71
2024/03/09 00:30:19;;;;;;;81.30;53.10;;;;;;;;;;103791;1288;544841;-71
2024/03/09 00:34:05;;;;;;;86.20;56.80;;;;;;;;;;103726;1302;545458;-70
2024/03/09 00:37:21;;;;;;;80.60;51.90;;;;;;;;;;103610;1289;544805;-70
2024/03/09 00:41:19;;;;;;;80.60;51.10;;;;;;;;;;103426;1292;545587;-70
2024/03/09 00:44:36;;;;;;;74.20;47.40;;;;;;;;;;103816;1292;544803;-70
2024/03/09 00:48:19;;;;;;;74.70;49.80;;;;;;;;;;103685;1289;545439;-71
2024/03/09 00:51:51;;;;;;;75.90;50.70;;;;;;;;;;103338;1295;545343;-70
2024/03/09 00:55:28;;;;;;;78.20;48.60;;;;;;;;;;103317;1298;545537;-71
2024/03/09 01:03:29;;;;;;;71.40;46.20;;;;;;;;;;103561;1289;546533;-71
2024/03/09 01:06:23;;;;;;;66.30;44.30;;;;;;;;;;104271;1283;545091;-70
2024/03/09 01:09:59;;;;;;;67.10;46.70;;;;;;;;;;103466;1292;545595;-70
2024/03/09 01:17:26;;;;;;;71.00;46.10;;;;;;;;;;103611;1289;545144;-70
2024/03/09 01:21:03;;;;;;;66.40;44.30;;;;;;;;;;103613;1293;544795;-71
2024/03/09 01:24:29;;;;;;;64.70;43.00;;;;;;;;;;103650;1289;544911;-71
2024/03/09 01:28:08;;;;;;;69.30;46.10;;;;;;;;;;103780;1289;545019;-72
2024/03/09 01:31:43;;;;;;;70.40;47.30;;;;;;;;;;103872;1289;544764;-72
2024/03/09 01:35:24;;;;;;;71.40;46.00;;;;;;;;;;103569;1308;545955;-69
2024/03/09 01:38:57;;;;;;;65.60;43.60;;;;;;;;;;103760;1290;544765;-70
2024/03/09 01:42:39;;;;;;;67.60;44.30;;;;;;;;;;103598;1291;545198;-70
2024/03/09 01:46:42;;;;;;;64.80;41.70;;;;;;;;;;103547;1295;545412;-70
2024/03/09 01:49:53;;;;;;;65.90;45.30;;;;;;;;;;104511;1284;544877;-71
2024/03/09 01:53:49;;;;;;;;;;;;;;;;;;;;;
2024/03/09 01:57:08;;;;;;;69.00;45.70;;;;;;;;;;103842;1289;544836;-71
2024/03/09 02:01:05;;;;;;;67.80;42.90;;;;;;;;;;103795;1288;544907;-70
2024/03/09 02:04:27;;;;;;;68.50;43.20;;;;;;;;;;103772;1289;544967;-70
2024/03/09 02:08:03;;;;;;;64.90;43.00;;;;;;;;;;103733;1292;544995;-71
2024/03/09 02:11:43;;;;;;;67.10;44.90;;;;;;;;;;103926;1292;545006;-71
2024/03/09 02:15:15;;;;;;;70.10;44.20;;;;;;;;;;103660;1290;545394;-69
2024/03/09 02:19:27;;;;;;;69.20;43.20;;;;;;;;;;103589;1292;545701;-71
2024/03/09 02:22:44;;;;;;;68.10;40.80;;;;;;;;;;103554;1292;545635;-71
2024/03/09 02:26:05;;;;;;;64.00;42.40;;;;;;;;;;103689;1292;545289;-71
2024/03/09 02:29:42;;;;;;;66.80;44.10;;;;;;;;;;103625;1292;545015;-70
2024/03/09 02:33:39;;;;;;;67.00;43.40;;;;;;;;;;103850;1289;545383;-70
2024/03/09 02:37:00;;;;;;;61.80;40.80;;;;;;;;;;103586;1292;545634;-70
2024/03/09 02:40:45;;;;;;;64.70;40.90;;;;;;;;;;103758;1292;545835;-71
2024/03/09 02:44:42;;;;;;;65.70;42.70;;;;;;;;;;103334;1294;545460;-71
2024/03/09 02:47:55;;;;;;;66.60;44.90;;;;;;;;;;103669;1292;544856;-70
2024/03/09 02:51:32;;;;;;;69.60;45.60;;;;;;;;;;103944;1288;544989;-70
2024/03/09 02:55:05;;;;;;;67.50;44.00;;;;;;;;;;103735;1289;544977;-70
2024/03/09 02:59:03;;;;;;;66.10;41.90;;;;;;;;;;103598;1289;545152;-72
2024/03/09 03:06:02;;;;;;;70.60;45.20;;;;;;;;;;103474;1298;545021;-71
2024/03/09 03:10:07;;;;;;;;;;;;;;;;;;;;;
2024/03/09 03:13:21;;;;;;;64.20;42.70;;;;;;;;;;103653;1291;545362;-70
2024/03/09 03:16:55;;;;;;;67.30;42.20;;;;;;;;;;103656;1292;545405;-70
2024/03/09 03:20:44;;;;;;;68.70;45.00;;;;;;;;;;103589;1292;545724;-71
2024/03/09 03:24:13;;;;;;;70.80;45.70;;;;;;;;;;103546;1295;545434;-70
2024/03/09 03:27:47;;;;;;;74.10;45.90;;;;;;;;;;103666;1289;545591;-70
2024/03/09 03:31:22;;;;;;;70.50;45.10;;;;;;;;;;103677;1289;545247;-70
2024/03/09 03:35:13;;;;;;;63.70;41.30;;;;;;;;;;103356;1292;546382;-70
2024/03/09 03:38:35;;;;;;;65.60;43.30;;;;;;;;;;103685;1292;545187;-69
2024/03/09 03:42:28;;;;;;;72.70;46.20;;;;;;;;;;104442;1283;545409;-71
2024/03/09 03:45:50;;;;;;;72.60;45.00;;;;;;;;;;103706;1289;544995;-71
2024/03/09 03:49:33;;;;;;;67.00;43.20;;;;;;;;;;103697;1292;544845;-70
2024/03/09 03:53:51;;;;;;;65.40;41.50;;;;;;;;;;103693;1291;544734;-67
2024/03/09 03:56:45;;;;;;;66.30;42.70;;;;;;;;;;103399;1294;545536;-71
2024/03/09 04:00:16;;;;;;;68.40;43.70;;;;;;;;;;104517;1283;545330;-70
2024/03/09 04:03:59;;;;;;;68.50;43.20;;;;;;;;;;103532;1292;545693;-69
2024/03/09 04:07:48;;;;;;;63.90;40.90;;;;;;;;;;103712;1291;545065;-70
2024/03/09 04:11:26;;;;;;;63.60;41.80;;;;;;;;;;103716;1292;545338;-71
2024/03/09 04:14:49;;;;;;;66.60;43.50;;;;;;;;;;103801;1289;544783;-70
2024/03/09 04:18:29;;;;;;;63.40;40.80;;;;;;;;;;103694;1291;545245;-71
2024/03/09 04:22:05;;;;;;;63.30;40.30;;;;;;;;;;103695;1294;545866;-71
2024/03/09 04:25:46;;;;;;;60.10;39.20;;;;;;;;;;103657;1291;544778;-70
2024/03/09 04:29:22;;;;;;;60.40;41.00;;;;;;;;;;103766;1293;545084;-71
2024/03/09 04:33:01;;;;;;;64.50;42.10;;;;;;;;;;103650;1291;545104;-72
2024/03/09 04:36:43;;;;;;;66.00;40.50;;;;;;;;;;103358;1292;545090;-70
2024/03/09 04:40:18;;;;;;;61.90;40.10;;;;;;;;;;103638;1293;545056;-70
2024/03/09 04:44:00;;;;;;;57.60;37.80;;;;;;;;;;103398;1291;545937;-71
2024/03/09 04:47:27;;;;;;;60.90;39.30;;;;;;;;;;103685;1291;544850;-71
2024/03/09 04:51:04;;;;;;;59.00;39.30;;;;;;;;;;103708;1292;544995;-71
2024/03/09 04:54:44;;;;;;;66.80;42.80;;;;;;;;;;103672;1290;545579;-71
2024/03/09 04:58:19;;;;;;;64.00;41.50;;;;;;;;;;103869;1292;544782;-70
2024/03/09 05:01:56;;;;;;;62.30;39.60;;;;;;;;;;103110;1298;546004;-70
2024/03/09 05:05:34;;;;;;;64.60;41.90;;;;;;;;;;103487;1289;545063;-71
2024/03/09 05:09:16;;;;;;;64.00;42.10;;;;;;;;;;103570;1297;545415;-71
2024/03/09 05:12:55;;;;;;;63.40;41.20;;;;;;;;;;103741;1292;544937;-71
2024/03/09 05:16:26;;;;;;;63.60;40.50;;;;;;;;;;103733;1291;545254;-72
2024/03/09 05:20:20;;;;;;;63.60;38.90;;;;;;;;;;103545;1291;547919;-72
2024/03/09 05:23:41;;;;;;;62.00;41.40;;;;;;;;;;104371;1286;544841;-71
2024/03/09 05:27:19;;;;;;;65.80;42.10;;;;;;;;;;103648;1292;545211;-71
2024/03/09 05:30:56;;;;;;;66.60;41.40;;;;;;;;;;103421;1297;544804;-70
2024/03/09 05:34:36;;;;;;;62.10;39.40;;;;;;;;;;103665;1290;545534;-71
2024/03/09 05:38:11;;;;;;;62.10;39.30;;;;;;;;;;103561;1291;545693;-71
2024/03/09 05:41:50;;;;;;;61.40;40.10;;;;;;;;;;103779;1293;544844;-71
2024/03/09 05:45:25;;;;;;;64.30;41.60;;;;;;;;;;103584;1291;545902;-71
2024/03/09 05:49:05;;;;;;;68.00;42.00;;;;;;;;;;104501;1285;544801;-72
2024/03/09 05:52:41;;;;;;;63.50;40.30;;;;;;;;;;103516;1292;545189;-71
2024/03/09 05:56:21;;;;;;;63.10;40.40;;;;;;;;;;103772;1291;544917;-71
2024/03/09 05:59:55;;;;;;;65.70;40.20;;;;;;;;;;103917;1288;544963;-71
2024/03/09 06:04:02;;;;;;;;;;;;;;;;;;;;;
2024/03/09 06:07:11;;;;;;;64.70;41.80;;;;;;;;;;103677;1291;545248;-72
2024/03/09 06:10:49;;;;;;;62.60;40.00;;;;;;;;;;104273;1285;544821;-71
2024/03/09 06:14:27;;;;;;;62.70;40.50;;;;;;;;;;103531;1295;545914;-71
2024/03/09 06:18:03;;;;;;;60.30;40.20;;;;;;;;;;103668;1293;545602;-71
2024/03/09 06:21:40;;;;;;;62.20;40.40;;;;;;;;;;103572;1288;544910;-71
2024/03/09 06:25:25;;;;;;;66.60;43.20;;;;;;;;;;104246;1284;545333;-71
2024/03/09 06:28:55;;;;;;;61.60;39.90;;;;;;;;;;103641;1291;544917;-71
2024/03/09 06:32:53;;;;;;;63.30;39.60;;;;;;;;;;103672;1292;545916;-71
2024/03/09 06:36:12;;;;;;;62.00;39.80;;;;;;;;;;103627;1295;544785;-70
2024/03/09 06:39:48;;;;;;;62.00;39.00;;;;;;;;;;103383;1294;545001;-71
2024/03/09 06:43:21;;;;;;;59.10;39.00;;;;;;;;;;103756;1295;545416;-70
2024/03/09 06:47:06;;;;;;;61.60;40.70;;;;;;;;;;103671;1288;545367;-71
2024/03/09 06:50:44;;;;;;;57.60;37.00;;;;;;;;;;103347;1298;544868;-71
2024/03/09 06:54:18;;;;;;;57.20;35.60;;;;;;;;;;104340;1283;545059;-70
2024/03/09 06:58:36;;;;;;;55.40;36.90;;;;;;;;;;104314;1285;544897;-71
2024/03/09 07:01:33;;;;;;;56.00;37.40;;;;;;;;;;103693;1291;544986;-71
2024/03/09 07:05:10;;;;;;;57.90;37.40;;;;;;;;;;103521;1302;545181;-71
2024/03/09 07:08:47;;;;;;;58.40;35.00;;;;;;;;;;103650;1292;544870;-70
2024/03/09 07:12:24;;;;;;;58.10;37.40;;;;;;;;;;103618;1291;544762;-71
2024/03/09 07:16:02;;;;;;;58.90;39.20;;;;;;;;;;103625;1289;545707;-71
2024/03/09 07:19:40;;;;;;;56.20;36.80;;;;;;;;;;104258;1283;544992;-71
2024/03/09 07:23:19;;;;;;;55.30;36.00;;;;;;;;;;103528;1290;546083;-70
2024/03/09 07:26:54;;;;;;;57.00;38.60;;;;;;;;;;103472;1291;545624;-71
2024/03/09 07:30:32;;;;;;;56.10;38.40;;;;;;;;;;103545;1289;545708;-72
2024/03/09 07:34:05;;;;;;;56.30;37.40;;;;;;;;;;103694;1289;544784;-69
2024/03/09 07:37:58;;;;;;;;;;;;;;;;;;;;;
2024/03/09 07:41:24;;;;;;;48.30;32.50;;;;;;;;;;104038;1286;545330;-70
2024/03/09 07:45:01;;;;;;;50.60;33.70;;;;;;;;;;103707;1291;545018;-71
2024/03/09 07:48:40;;;;;;;49.20;34.40;;;;;;;;;;103604;1292;545264;-70
2024/03/09 07:52:16;;;;;;;48.70;33.80;;;;;;;;;;103555;1291;544802;-71
2024/03/09 07:55:57;;;;;;;44.40;30.10;;;;;;;;;;104310;1286;545926;-68
2024/03/09 07:59:32;;;;;;;42.00;27.80;;;;;;;;;;103518;1292;544874;-70
2024/03/09 08:03:15;;;;;;;39.70;28.50;;;;;;;;;;103577;1289;547799;-70
2024/03/09 08:06:47;;;;;;;42.50;28.60;;;;;;;;;;103528;1292;546750;-71
2024/03/09 08:10:27;;;;;;;41.00;29.20;;;;;;;;;;103623;1291;544801;-72
2024/03/09 08:14:01;;;;;;;45.50;29.50;;;;;;;;;;103426;1292;545533;-71
2024/03/09 08:17:42;;;;;;;43.30;29.50;;;;;;;;;;103594;1296;545109;-70
2024/03/09 08:21:21;;;;;;;43.10;30.00;;;;;;;;;;103921;1294;545612;-72
2024/03/09 08:24:53;;;;;;;44.50;30.70;;;;;;;;;;103454;1290;545051;-72
2024/03/09 08:28:33;;;;;;;43.90;31.30;;;;;;;;;;103696;1288;545472;-72
2024/03/09 08:32:09;;;;;;;42.90;30.40;;;;;;;;;;103725;1290;545032;-71
2024/03/09 08:35:55;;;;;;;43.20;30.50;;;;;;;;;;103701;1289;545656;-69
2024/03/09 08:39:25;;;;;;;41.70;28.60;;;;;;;;;;103475;1291;545238;-69
2024/03/09 08:43:03;;;;;;;38.70;27.80;;;;;;;;;;103497;1291;546079;-71
2024/03/09 08:46:39;;;;;;;38.00;27.40;;;;;;;;;;104780;1281;544993;-71
2024/03/09 08:50:12;;;;;;;36.60;26.00;;;;;;;;;;103615;1292;545126;-69
2024/03/09 08:53:53;;;;;;;37.40;27.30;;;;;;;;;;103531;1288;544768;-69
2024/03/09 08:57:28;;;;;;;37.30;26.70;;;;;;;;;;103831;1301;545165;-70
2024/03/09 09:01:11;;;;;;;26.60;19.10;;;;;;;;;;103425;1292;544820;-71
2024/03/09 09:04:46;;;;;;;26.50;19.10;;;;;;;;;;103594;1292;545320;-72
2024/03/09 09:08:26;;;;;;;26.90;19.00;;;;;;;;;;103662;1292;545438;-70
2024/03/09 09:12:01;;;;;;;28.90;20.00;;;;;;;;;;103777;1289;544752;-70
2024/03/09 09:15:38;;;;;;;29.40;20.60;;;;;;;;;;103915;1289;544984;-71
2024/03/09 09:19:17;;;;;;;28.90;21.70;;;;;;;;;;103684;1288;545148;-70
2024/03/09 09:22:55;;;;;;;32.70;21.10;;;;;;;;;;103816;1288;544725;-71
2024/03/09 09:26:32;;;;;;;28.30;19.90;;;;;;;;;;103662;1292;545201;-71
2024/03/09 09:30:08;;;;;;;26.80;18.90;;;;;;;;;;103640;1292;544954;-71
2024/03/09 09:33:45;;;;;;;26.50;19.60;;;;;;;;;;103669;1292;544919;-72
2024/03/09 09:37:23;;;;;;;27.20;19.70;;;;;;;;;;103739;1288;544984;-70
2024/03/09 09:41:02;;;;;;;27.00;18.80;;;;;;;;;;103383;1294;546145;-70
2024/03/09 09:44:40;;;;;;;27.10;18.30;;;;;;;;;;103653;1295;546702;-71
2024/03/09 09:48:17;;;;;;;24.00;17.00;;;;;;;;;;103762;1289;544810;-71
2024/03/09 09:51:58;;;;;;;22.30;16.40;;;;;;;;;;103443;1291;548857;-71
2024/03/09 09:55:31;;;;;;;27.10;16.40;;;;;;;;;;103394;1292;545065;-71
2024/03/09 09:59:10;;;;;;;22.20;15.70;;;;;;;;;;103566;1299;545235;-70
2024/03/09 10:02:45;;;;;;;25.10;16.70;;;;;;;;;;104578;1292;545188;-69
2024/03/09 10:06:23;;;;;;;22.70;16.70;;;;;;;;;;103639;1290;545068;-71
2024/03/09 10:09:56;;;;;;;21.10;15.60;;;;;;;;;;103656;1289;544864;-70
2024/03/09 10:13:37;;;;;;;22.90;16.40;;;;;;;;;;104502;1282;545699;-71
2024/03/09 10:17:15;;;;;;;23.20;16.40;;;;;;;;;;103868;1287;544923;-71
2024/03/09 10:20:57;;;;;;;22.90;16.20;;;;;;;;;;103698;1292;544949;-71
2024/03/09 10:24:26;;;;;;;23.30;16.30;;;;;;;;;;103766;1288;546594;-72
2024/03/09 10:28:10;;;;;;;27.40;17.60;;;;;;;;;;103473;1295;545037;-70
2024/03/09 10:31:46;;;;;;;22.90;16.40;;;;;;;;;;104445;1286;546129;-71
2024/03/09 10:35:25;;;;;;;23.00;16.60;;;;;;;;;;103611;1289;545103;-71
2024/03/09 10:39:06;;;;;;;24.10;15.80;;;;;;;;;;103565;1288;547941;-70
2024/03/09 10:42:45;;;;;;;19.90;14.90;;;;;;;;;;103791;1289;544927;-70
2024/03/09 10:46:21;;;;;;;21.50;14.70;;;;;;;;;;103727;1289;544971;-71
2024/03/09 10:49:55;;;;;;;22.10;15.80;;;;;;;;;;103623;1289;545024;-71
2024/03/09 10:53:35;;;;;;;23.30;16.00;;;;;;;;;;103476;1291;549325;-71
2024/03/09 10:57:10;;;;;;;22.20;15.40;;;;;;;;;;103692;1291;545943;-71
2024/03/09 11:00:49;;;;;;;22.80;15.80;;;;;;;;;;104442;1281;548093;-71
2024/03/09 11:04:25;;;;;;;21.30;15.30;;;;;;;;;;103414;1295;545439;-71
2024/03/09 11:08:00;;;;;;;20.50;15.00;;;;;;;;;;103715;1292;545703;-70
2024/03/09 11:11:37;;;;;;;24.80;16.40;;;;;;;;;;103718;1292;545530;-71
2024/03/09 11:15:15;;;;;;;26.20;17.30;;;;;;;;;;103753;1290;545947;-70
2024/03/09 11:18:58;;;;;;;23.10;15.10;;;;;;;;;;103712;1292;545072;-68
2024/03/09 11:22:41;;;;;;;21.60;15.40;;;;;;;;;;103679;1289;544900;-70
2024/03/09 11:26:03;;;;;;;19.90;12.70;;;;;;;;;;103736;1292;545103;-71
2024/03/09 11:29:44;;;;;;;18.30;12.80;;;;;;;;;;103732;1290;544861;-70
2024/03/09 11:33:22;;;;;;;20.80;14.10;;;;;;;;;;103383;1304;544961;-70
2024/03/09 11:37:04;;;;;;;19.80;13.80;;;;;;;;;;104008;1287;546398;-69
2024/03/09 11:40:37;;;;;;;20.40;14.60;;;;;;;;;;103479;1293;544947;-71
2024/03/09 11:44:19;;;;;;;19.80;14.10;;;;;;;;;;103742;1292;545478;-69
2024/03/09 11:47:52;;;;;;;18.90;13.70;;;;;;;;;;104364;1286;544841;-72
2024/03/09 11:51:36;;;;;;;21.90;15.90;;;;;;;;;;103711;1289;545142;-71
2024/03/09 11:55:07;;;;;;;21.90;14.70;;;;;;;;;;103749;1289;544952;-71
2024/03/09 11:58:44;;;;;;;18.80;14.00;;;;;;;;;;103646;1292;545256;-70
2024/03/09 12:02:23;;;;;;;20.60;14.90;;;;;;;;;;103818;1289;545071;-70
2024/03/09 12:06:00;;;;;;;27.90;19.10;;;;;;;;;;103680;1289;545009;-70
2024/03/09 12:09:37;;;;;;;19.30;13.30;;;;;;;;;;103527;1291;544858;-71
2024/03/09 12:13:13;;;;;;;19.80;13.70;;;;;;;;;;103577;1291;545698;-71
2024/03/09 12:16:52;;;;;;;21.20;14.80;;;;;;;;;;103766;1291;544888;-69
2024/03/09 12:20:29;;;;;;;20.80;13.90;;;;;;;;;;103679;1289;544765;-71
2024/03/09 12:24:06;;;;;;;19.00;14.20;;;;;;;;;;103692;1292;544990;-69
2024/03/09 12:27:44;;;;;;;18.30;14.20;;;;;;;;;;103679;1292;545901;-71
2024/03/09 12:31:21;;;;;;;21.10;14.60;;;;;;;;;;103687;1293;545932;-71
2024/03/09 12:34:59;;;;;;;18.80;13.90;;;;;;;;;;103774;1292;544926;-70
2024/03/09 12:38:38;;;;;;;20.90;14.60;;;;;;;;;;103673;1292;545234;-70
2024/03/09 12:42:15;;;;;;;19.30;13.50;;;;;;;;;;103413;1294;545602;-70
2024/03/09 12:45:55;;;;;;;17.50;13.20;;;;;;;;;;103394;1298;544824;-69
2024/03/09 12:49:29;;;;;;;19.10;13.90;;;;;;;;;;103784;1291;544638;-72
2024/03/09 12:53:07;;;;;;;17.70;13.50;;;;;;;;;;103625;1291;545451;-71
2024/03/09 12:56:50;;;;;;;17.90;12.30;;;;;;;;;;103752;1289;545012;-71
2024/03/09 13:00:22;;;;;;;15.70;11.80;;;;;;;;;;103675;1289;544750;-70
2024/03/09 13:03:58;;;;;;;16.90;11.40;;;;;;;;;;103746;1292;545344;-71
2024/03/09 13:07:39;;;;;;;15.70;11.10;;;;;;;;;;103844;1288;544714;-69
2024/03/09 13:11:13;;;;;;;20.20;14.60;;;;;;;;;;103422;1293;544745;-71
2024/03/09 13:14:52;;;;;;;19.40;13.60;;;;;;;;;;103740;1293;544812;-71
2024/03/09 13:18:24;;;;;;;18.60;13.00;;;;;;;;;;103880;1288;544801;-70
2024/03/09 13:22:13;;;;;;;20.60;14.00;;;;;;;;;;103454;1295;544996;-72
2024/03/09 13:25:46;;;;;;;19.90;14.10;;;;;;;;;;103690;1293;544946;-69
2024/03/09 13:29:27;;;;;;;20.90;14.50;;;;;;;;;;103519;1293;544791;-71
2024/03/09 13:32:58;;;;;;;21.30;15.30;;;;;;;;;;103584;1289;544956;-72
2024/03/09 13:36:36;;;;;;;20.40;14.50;;;;;;;;;;103388;1306;545147;-72
2024/03/09 13:40:13;;;;;;;20.80;14.90;;;;;;;;;;103654;1291;544852;-71
2024/03/09 13:43:56;;;;;;;19.10;14.00;;;;;;;;;;103388;1298;549173;-71
2024/03/09 13:47:28;;;;;;;19.50;13.70;;;;;;;;;;103638;1299;544888;-71
2024/03/09 13:51:08;;;;;;;17.70;13.30;;;;;;;;;;103735;1292;544855;-71
2024/03/09 13:54:44;;;;;;;18.60;13.10;;;;;;;;;;103625;1291;545701;-72
2024/03/09 13:58:20;;;;;;;17.60;13.50;;;;;;;;;;103465;1298;544786;-71
2024/03/09 14:01:59;;;;;;;21.00;14.60;;;;;;;;;;103405;1295;545502;-71
2024/03/09 14:05:36;;;;;;;20.70;14.20;;;;;;;;;;103615;1292;544766;-69
2024/03/09 14:09:13;;;;;;;20.20;13.80;;;;;;;;;;103770;1292;545512;-71
2024/03/09 14:12:53;;;;;;;17.60;12.50;;;;;;;;;;103738;1289;544705;-69
2024/03/09 14:16:34;;;;;;;18.80;14.00;;;;;;;;;;103478;1289;549397;-72
2024/03/09 14:20:16;;;;;;;20.10;14.00;;;;;;;;;;103804;1292;545333;-71
2024/03/09 14:23:44;;;;;;;18.70;13.70;;;;;;;;;;103492;1291;544926;-70
2024/03/09 14:27:20;;;;;;;20.70;15.10;;;;;;;;;;103693;1302;544982;-69
2024/03/09 14:30:58;;;;;;;21.40;14.80;;;;;;;;;;103580;1289;544966;-71
2024/03/09 14:34:35;;;;;;;21.00;15.60;;;;;;;;;;103448;1292;544905;-70
2024/03/09 14:38:14;;;;;;;22.40;16.90;;;;;;;;;;103715;1292;544951;-70
2024/03/09 14:41:51;;;;;;;25.10;18.30;;;;;;;;;;103614;1292;544788;-71
2024/03/09 14:45:27;;;;;;;28.90;19.80;;;;;;;;;;103670;1290;545797;-69
2024/03/09 14:49:07;;;;;;;27.10;18.60;;;;;;;;;;103466;1295;545329;-72
2024/03/09 14:52:42;;;;;;;32.80;21.40;;;;;;;;;;103788;1288;544941;-71
2024/03/09 14:56:21;;;;;;;25.90;18.30;;;;;;;;;;103609;1288;544785;-70
2024/03/09 14:59:57;;;;;;;22.10;17.50;;;;;;;;;;103466;1292;545505;-69
2024/03/09 15:03:34;;;;;;;23.30;17.80;;;;;;;;;;103946;1290;545143;-70
2024/03/09 15:07:14;;;;;;;24.50;18.40;;;;;;;;;;103669;1294;546043;-70
2024/03/09 15:10:54;;;;;;;24.60;18.30;;;;;;;;;;103775;1293;544883;-70
2024/03/09 15:14:27;;;;;;;24.80;18.20;;;;;;;;;;103279;1298;545440;-71
2024/03/09 15:18:10;;;;;;;24.30;18.90;;;;;;;;;;103506;1293;544939;-71
2024/03/09 15:21:48;;;;;;;24.60;19.10;;;;;;;;;;103509;1289;547982;-71
2024/03/09 15:25:19;;;;;;;27.90;21.40;;;;;;;;;;103764;1294;544901;-71
2024/03/09 15:28:57;;;;;;;26.00;19.50;;;;;;;;;;103721;1292;544927;-71
2024/03/09 15:32:34;;;;;;;28.50;18.90;;;;;;;;;;103587;1292;544890;-70
2024/03/09 15:36:12;;;;;;;24.00;18.90;;;;;;;;;;103676;1289;545295;-71
2024/03/09 15:39:50;;;;;;;26.60;19.50;;;;;;;;;;103555;1295;545282;-70
2024/03/09 15:43:36;;;;;;;28.50;20.60;;;;;;;;;;103329;1295;548435;-71
2024/03/09 15:47:04;;;;;;;26.60;21.00;;;;;;;;;;104657;1281;544761;-70
2024/03/09 15:50:42;;;;;;;28.70;21.20;;;;;;;;;;103638;1292;545997;-70
2024/03/09 15:54:24;;;;;;;27.60;20.70;;;;;;;;;;103626;1289;544867;-71
2024/03/09 15:58:09;;;;;;;27.20;19.90;;;;;;;;;;103583;1291;548147;-70
2024/03/09 16:01:34;;;;;;;24.90;19.00;;;;;;;;;;103778;1289;545109;-70
2024/03/09 16:05:13;;;;;;;25.40;17.80;;;;;;;;;;103828;1289;545301;-70
2024/03/09 16:08:48;;;;;;;26.10;19.70;;;;;;;;;;103630;1290;545429;-69
2024/03/09 16:12:26;;;;;;;27.40;20.30;;;;;;;;;;103582;1290;544968;-70
2024/03/09 16:16:07;;;;;;;31.80;24.40;;;;;;;;;;103607;1290;544792;-71
2024/03/09 16:19:41;;;;;;;28.10;21.00;;;;;;;;;;103716;1288;545390;-70
2024/03/09 16:23:19;;;;;;;26.50;20.50;;;;;;;;;;103571;1294;545352;-69
2024/03/09 16:26:56;;;;;;;28.20;21.00;;;;;;;;;;103574;1294;545591;-69
2024/03/09 16:30:33;;;;;;;27.60;20.60;;;;;;;;;;103653;1292;545067;-70
2024/03/09 16:34:15;;;;;;;25.60;19.50;;;;;;;;;;103447;1291;548245;-71
2024/03/09 16:37:51;;;;;;;31.20;22.80;;;;;;;;;;103588;1291;544762;-71
2024/03/09 16:41:27;;;;;;;31.00;23.60;;;;;;;;;;103663;1294;545422;-72
2024/03/09 16:45:09;;;;;;;30.90;22.60;;;;;;;;;;103658;1289;544792;-70
2024/03/09 16:48:41;;;;;;;28.10;21.80;;;;;;;;;;104253;1285;545374;-70
2024/03/09 16:52:20;;;;;;;33.00;24.80;;;;;;;;;;103606;1292;545141;-72
2024/03/09 16:56:01;;;;;;;38.00;25.50;;;;;;;;;;103694;1291;545789;-70
2024/03/09 16:59:34;;;;;;;36.30;25.20;;;;;;;;;;103529;1289;544994;-70
2024/03/09 17:03:15;;;;;;;34.30;26.00;;;;;;;;;;103578;1292;544997;-69
2024/03/09 17:06:49;;;;;;;39.20;27.90;;;;;;;;;;103581;1295;544777;-71
2024/03/09 17:10:29;;;;;;;40.60;28.80;;;;;;;;;;103438;1291;545790;-71
2024/03/09 17:14:01;;;;;;;39.20;28.00;;;;;;;;;;103594;1293;545751;-70
2024/03/09 17:17:41;;;;;;;36.30;26.70;;;;;;;;;;103274;1297;544844;-70
2024/03/09 17:21:19;;;;;;;34.60;24.00;;;;;;;;;;103598;1288;545597;-70
2024/03/09 17:24:58;;;;;;;32.60;24.60;;;;;;;;;;103500;1292;545456;-71
2024/03/09 17:28:34;;;;;;;37.00;25.60;;;;;;;;;;103579;1294;545059;-71
2024/03/09 17:32:09;;;;;;;38.80;27.60;;;;;;;;;;103383;1292;545089;-69
2024/03/09 17:35:48;;;;;;;32.90;24.10;;;;;;;;;;103594;1292;545762;-71
2024/03/09 17:39:25;;;;;;;32.40;23.60;;;;;;;;;;103357;1291;544796;-71
2024/03/09 17:43:03;;;;;;;30.20;21.10;;;;;;;;;;103464;1289;545062;-70
2024/03/09 17:46:41;;;;;;;31.10;22.50;;;;;;;;;;104219;1291;544991;-70
2024/03/09 17:50:25;;;;;;;31.30;23.30;;;;;;;;;;103569;1291;544976;-70
2024/03/09 17:53:53;;;;;;;35.70;25.80;;;;;;;;;;103362;1291;544886;-70
2024/03/09 17:57:33;;;;;;;37.00;26.60;;;;;;;;;;104234;1285;544867;-70
2024/03/09 18:01:19;;;;;;;36.50;24.00;;;;;;;;;;103307;1291;547886;-70
2024/03/09 18:04:48;;;;;;;39.30;26.50;;;;;;;;;;103435;1292;545746;-70
2024/03/09 18:08:33;;;;;;;41.90;28.60;;;;;;;;;;103321;1292;549015;-69
2024/03/09 18:11:59;;;;;;;41.50;29.90;;;;;;;;;;103762;1288;544934;-71
2024/03/09 18:15:43;;;;;;;41.70;29.80;;;;;;;;;;103618;1296;544786;-70
2024/03/09 18:19:21;;;;;;;39.90;28.70;;;;;;;;;;103389;1295;545385;-69
2024/03/09 18:22:58;;;;;;;37.40;27.10;;;;;;;;;;103756;1288;544920;-71
2024/03/09 18:26:33;;;;;;;41.20;27.00;;;;;;;;;;103993;1289;545062;-70
2024/03/09 18:30:11;;;;;;;47.50;29.40;;;;;;;;;;103622;1292;544797;-70
2024/03/09 18:33:49;;;;;;;57.00;32.10;;;;;;;;;;103501;1291;544838;-70
2024/03/09 18:37:26;;;;;;;53.90;33.20;;;;;;;;;;103607;1289;544816;-70
2024/03/09 18:41:13;;;;;;;51.30;30.40;;;;;;;;;;103590;1291;545667;-69
2024/03/09 18:44:46;;;;;;;52.00;30.00;;;;;;;;;;103586;1294;548152;-69
2024/03/09 18:48:17;;;;;;;43.90;28.60;;;;;;;;;;103637;1291;545605;-69
2024/03/09 18:51:55;;;;;;;46.20;28.90;;;;;;;;;;103378;1291;545703;-70
2024/03/09 18:55:29;;;;;;;44.10;28.40;;;;;;;;;;103333;1295;545500;-70
2024/03/09 18:59:11;;;;;;;45.10;28.50;;;;;;;;;;103315;1289;545120;-70
2024/03/09 19:02:51;;;;;;;42.40;27.50;;;;;;;;;;103354;1290;544930;-70
2024/03/09 19:06:21;;;;;;;34.90;24.10;;;;;;;;;;104255;1289;544767;-70
2024/03/09 19:10:02;;;;;;;35.80;25.10;;;;;;;;;;103389;1291;545101;-72
2024/03/09 19:13:40;;;;;;;38.00;26.70;;;;;;;;;;103770;1289;545694;-71
2024/03/09 19:17:23;;;;;;;37.10;26.30;;;;;;;;;;103141;1295;547997;-69
2024/03/09 19:20:56;;;;;;;32.70;23.40;;;;;;;;;;103561;1289;545201;-71
2024/03/09 19:24:32;;;;;;;33.50;24.10;;;;;;;;;;103528;1290;545546;-70
2024/03/09 19:28:11;;;;;;;36.60;25.60;;;;;;;;;;103538;1292;544990;-71
2024/03/09 19:31:48;;;;;;;36.80;26.30;;;;;;;;;;104391;1282;544842;-71
2024/03/09 19:35:27;;;;;;;41.90;28.90;;;;;;;;;;103687;1289;544976;-71
2024/03/09 19:39:02;;;;;;;41.90;28.30;;;;;;;;;;103911;1288;545565;-71
2024/03/09 19:42:43;;;;;;;38.00;25.70;;;;;;;;;;103673;1288;545400;-70
2024/03/09 19:46:17;;;;;;;38.60;25.50;;;;;;;;;;103798;1288;546589;-70
2024/03/09 19:49:55;;;;;;;37.00;25.60;;;;;;;;;;103794;1295;544704;-71
2024/03/09 19:53:33;;;;;;;41.10;27.90;;;;;;;;;;103707;1292;545993;-70
2024/03/09 19:57:12;;;;;;;41.90;28.70;;;;;;;;;;103504;1295;545013;-71
2024/03/09 20:00:47;;;;;;;44.00;28.60;;;;;;;;;;103698;1292;545958;-71
2024/03/09 20:04:25;;;;;;;45.00;28.90;;;;;;;;;;103605;1289;545748;-71
2024/03/09 20:08:02;;;;;;;41.80;26.80;;;;;;;;;;103613;1296;545482;-71
2024/03/09 20:11:40;;;;;;;44.80;29.60;;;;;;;;;;103539;1289;544776;-70
2024/03/09 20:15:17;;;;;;;43.10;28.10;;;;;;;;;;103729;1292;544981;-71
2024/03/09 20:18:55;;;;;;;35.70;23.70;;;;;;;;;;103897;1296;545582;-69
2024/03/09 20:22:32;;;;;;;28.50;20.50;;;;;;;;;;103923;1288;544318;-71
2024/03/09 20:26:11;;;;;;;28.50;20.90;;;;;;;;;;103757;1291;544782;-71
2024/03/09 20:29:48;;;;;;;31.00;21.60;;;;;;;;;;103718;1291;544972;-71
2024/03/09 20:33:25;;;;;;;31.00;22.40;;;;;;;;;;103597;1290;545798;-70
2024/03/09 20:37:02;;;;;;;32.40;23.10;;;;;;;;;;103610;1294;544816;-70
2024/03/09 20:40:40;;;;;;;35.40;24.20;;;;;;;;;;103544;1292;544906;-70
2024/03/09 20:44:18;;;;;;;35.40;23.60;;;;;;;;;;103554;1291;545108;-70